Wall, SD (57790)

12:08 AM MST on February 28, 2015 (GMT -0700)
NonFedAWOS WALLMUNC SD US SUPERAWOS | Change Station
CLOSE
Current Station
Personal Weather Station
Location: Wall, SD
Elevation: 2812 ft
Nearby Weather Stations

Elev 2812 ft 44.00 °N, 102.25 °W | Updated 53 minutes ago

Clear
Clear
18 °F
Feels Like 8 °F
N
8
Wind Variable Wind from SE
Gusts 0.0 mph

Today
High -- | Low -- °F
--% Chance of Precip.
Yesterday
High -- | Low -- °F
Precip. -- in
6:27 AM 5:35 PM
Waxing Gibbous, 75% visible
Pressure 30.21 in
Visibility 10.0 miles
Clouds Clear
Windchill 8 °F
Dew Point 7 °F
Humidity 62%
Rainfall -999.00 in
Snow Depth Not available.
UV 0 out of 12
Pollen .40 out of 12
Air Quality Not available.
Flu Activity Not available.
METAR KPHP 280655Z AUTO 14005KT 10SM CLR M12/M16 A3011 RMK AO2 SLP230 T11171156 410061244

More Conditions Fewer Conditions

Pressure 30.21 in
Visibility 10.0 miles
Clouds Clear
Windchill 8 °F
Dew Point 7 °F
Humidity 62%
Rainfall -999.00 in
Snow Depth Not available.
UV 0 out of 12
Pollen .40 out of 12
Air Quality Not available.
Flu Activity Not available.
METAR KPHP 280655Z AUTO 14005KT 10SM CLR M12/M16 A3011 RMK AO2 SLP230 T11171156 410061244

More Conditions Fewer Conditions

10-Day Weather Forecast

Almanac

Astronomy

Feb. 28, 2015 Rise Set
Actual Time
Civil Twilight
Nautical Twilight
Astronomical Twilight
Moon
Length of Visible Light
Length of Day
Tomorrow will be .
, % of the Moon is Illuminated

Today's Extremes

State Highs State Lows

Community

WunderPhotos

Upload Photos

1,800,979 photos uploaded!

WunderBlogs® & News

Nearby

Air Quality

  Air Quality AQ Index Pollutant
Not available.

Snow Depth

Station Depth Elevation

Earthquake Activity

City Distance Mag. Time & Date
Minimum magnitude displayed is 2.5.

Coastal Water Temperatures

Place Temperature

Nearby Weather Stations